sensor_id;sensor_type;location;lat;lon;timestamp;temperature;humidity
21592;DHT22;10958;50.892;3.992;2023-02-07T00:00:19;4.00;99.90
21592;DHT22;10958;50.892;3.992;2023-02-07T00:02:48;4.10;99.90
21592;DHT22;10958;50.892;3.992;2023-02-07T00:05:14;4.20;99.90
21592;DHT22;10958;50.892;3.992;2023-02-07T00:07:46;4.20;99.90
21592;DHT22;10958;50.892;3.992;2023-02-07T00:10:17;4.10;99.90
21592;DHT22;10958;50.892;3.992;2023-02-07T00:13:01;3.90;99.90
21592;DHT22;10958;50.892;3.992;2023-02-07T00:15:31;4.00;99.90
21592;DHT22;10958;50.892;3.992;2023-02-07T00:18:02;4.10;99.90
21592;DHT22;10958;50.892;3.992;2023-02-07T00:20:31;4.20;99.90
21592;DHT22;10958;50.892;3.992;2023-02-07T00:22:57;4.30;99.90
21592;DHT22;10958;50.892;3.992;2023-02-07T00:25:23;4.00;99.90
21592;DHT22;10958;50.892;3.992;2023-02-07T00:27:49;3.80;99.90
21592;DHT22;10958;50.892;3.992;2023-02-07T00:30:34;4.00;99.90
21592;DHT22;10958;50.892;3.992;2023-02-07T00:33:00;4.20;99.90
21592;DHT22;10958;50.892;3.992;2023-02-07T00:35:29;4.00;99.90
21592;DHT22;10958;50.892;3.992;2023-02-07T00:38:00;3.80;99.90
21592;DHT22;10958;50.892;3.992;2023-02-07T00:40:46;3.80;99.90
21592;DHT22;10958;50.892;3.992;2023-02-07T00:43:22;3.80;99.90
21592;DHT22;10958;50.892;3.992;2023-02-07T00:45:52;3.60;99.90
21592;DHT22;10958;50.892;3.992;2023-02-07T00:48:18;3.70;99.90
21592;DHT22;10958;50.892;3.992;2023-02-07T00:50:46;3.90;99.90
21592;DHT22;10958;50.892;3.992;2023-02-07T00:53:12;3.90;99.90
21592;DHT22;10958;50.892;3.992;2023-02-07T00:55:41;3.80;99.90
21592;DHT22;10958;50.892;3.992;2023-02-07T00:58:07;3.70;99.90
21592;DHT22;10958;50.892;3.992;2023-02-07T01:00:33;3.60;99.90
21592;DHT22;10958;50.892;3.992;2023-02-07T01:03:01;3.70;99.90
21592;DHT22;10958;50.892;3.992;2023-02-07T01:05:27;3.70;99.90
21592;DHT22;10958;50.892;3.992;2023-02-07T01:07:53;3.70;99.90
21592;DHT22;10958;50.892;3.992;2023-02-07T01:10:19;3.60;99.90
21592;DHT22;10958;50.892;3.992;2023-02-07T01:12:45;3.60;99.90
21592;DHT22;10958;50.892;3.992;2023-02-07T01:15:14;3.60;99.90
21592;DHT22;10958;50.892;3.992;2023-02-07T01:17:41;3.50;99.90
21592;DHT22;10958;50.892;3.992;2023-02-07T01:20:07;3.40;99.90
21592;DHT22;10958;50.892;3.992;2023-02-07T01:22:34;3.40;99.90
21592;DHT22;10958;50.892;3.992;2023-02-07T01:25:00;3.40;99.90
21592;DHT22;10958;50.892;3.992;2023-02-07T01:29:56;3.00;99.90
21592;DHT22;10958;50.892;3.992;2023-02-07T01:32:34;3.10;99.90
21592;DHT22;10958;50.892;3.992;2023-02-07T01:35:00;3.30;99.90
21592;DHT22;10958;50.892;3.992;2023-02-07T01:37:26;3.40;99.90
21592;DHT22;10958;50.892;3.992;2023-02-07T01:39:54;3.40;99.90
21592;DHT22;10958;50.892;3.992;2023-02-07T01:42:23;3.30;99.90
21592;DHT22;10958;50.892;3.992;2023-02-07T01:47:20;3.30;99.90
21592;DHT22;10958;50.892;3.992;2023-02-07T01:49:48;3.30;99.90
21592;DHT22;10958;50.892;3.992;2023-02-07T01:52:23;3.40;99.90
21592;DHT22;10958;50.892;3.992;2023-02-07T01:54:52;3.20;99.90
21592;DHT22;10958;50.892;3.992;2023-02-07T01:57:21;3.10;99.90
21592;DHT22;10958;50.892;3.992;2023-02-07T01:59:51;3.10;99.90
21592;DHT22;10958;50.892;3.992;2023-02-07T02:02:20;3.10;99.90
21592;DHT22;10958;50.892;3.992;2023-02-07T02:04:49;3.00;99.90
21592;DHT22;10958;50.892;3.992;2023-02-07T02:07:16;3.00;99.90
21592;DHT22;10958;50.892;3.992;2023-02-07T02:09:42;3.10;99.90
21592;DHT22;10958;50.892;3.992;2023-02-07T02:29:29;2.80;99.90
21592;DHT22;10958;50.892;3.992;2023-02-07T02:37:46;2.60;99.90
21592;DHT22;10958;50.892;3.992;2023-02-07T02:40:18;2.70;99.90
21592;DHT22;10958;50.892;3.992;2023-02-07T02:42:57;2.60;99.90
21592;DHT22;10958;50.892;3.992;2023-02-07T02:45:32;2.50;99.90
21592;DHT22;10958;50.892;3.992;2023-02-07T02:47:59;2.60;99.90
21592;DHT22;10958;50.892;3.992;2023-02-07T02:50:33;2.60;99.90
21592;DHT22;10958;50.892;3.992;2023-02-07T02:52:59;2.60;99.90
21592;DHT22;10958;50.892;3.992;2023-02-07T03:03:42;2.60;99.90
21592;DHT22;10958;50.892;3.992;2023-02-07T03:11:21;2.70;99.90
21592;DHT22;10958;50.892;3.992;2023-02-07T03:16:40;2.60;99.90
21592;DHT22;10958;50.892;3.992;2023-02-07T03:19:18;2.70;99.90
21592;DHT22;10958;50.892;3.992;2023-02-07T03:21:58;2.80;99.90
21592;DHT22;10958;50.892;3.992;2023-02-07T03:24:36;3.00;99.90
21592;DHT22;10958;50.892;3.992;2023-02-07T03:27:19;2.90;99.90
21592;DHT22;10958;50.892;3.992;2023-02-07T03:30:14;2.70;99.90
21592;DHT22;10958;50.892;3.992;2023-02-07T03:32:49;2.90;99.90
21592;DHT22;10958;50.892;3.992;2023-02-07T03:35:37;2.70;99.90
21592;DHT22;10958;50.892;3.992;2023-02-07T03:38:13;2.70;99.90
21592;DHT22;10958;50.892;3.992;2023-02-07T03:40:52;2.60;99.90
21592;DHT22;10958;50.892;3.992;2023-02-07T03:43:30;2.50;99.90
21592;DHT22;10958;50.892;3.992;2023-02-07T03:46:19;2.60;99.90
21592;DHT22;10958;50.892;3.992;2023-02-07T03:48:58;2.70;99.90
21592;DHT22;10958;50.892;3.992;2023-02-07T03:51:29;2.80;99.90
21592;DHT22;10958;50.892;3.992;2023-02-07T03:54:00;2.60;99.90
21592;DHT22;10958;50.892;3.992;2023-02-07T03:56:34;2.20;99.90
21592;DHT22;10958;50.892;3.992;2023-02-07T04:02:20;2.10;99.90
21592;DHT22;10958;50.892;3.992;2023-02-07T04:04:48;2.10;99.90
21592;DHT22;10958;50.892;3.992;2023-02-07T04:07:36;2.10;99.90
21592;DHT22;10958;50.892;3.992;2023-02-07T04:13:14;2.30;99.90
21592;DHT22;10958;50.892;3.992;2023-02-07T04:15:46;2.20;99.90
21592;DHT22;10958;50.892;3.992;2023-02-07T04:18:20;1.90;99.90
21592;DHT22;10958;50.892;3.992;2023-02-07T04:20:53;1.50;99.90
21592;DHT22;10958;50.892;3.992;2023-02-07T04:23:42;1.60;99.90
21592;DHT22;10958;50.892;3.992;2023-02-07T04:26:08;1.90;99.90
21592;DHT22;10958;50.892;3.992;2023-02-07T04:28:36;2.10;99.90
21592;DHT22;10958;50.892;3.992;2023-02-07T04:31:02;2.20;99.90
21592;DHT22;10958;50.892;3.992;2023-02-07T04:33:28;2.20;99.90
21592;DHT22;10958;50.892;3.992;2023-02-07T04:36:02;2.20;99.90
21592;DHT22;10958;50.892;3.992;2023-02-07T04:38:28;2.20;99.90
21592;DHT22;10958;50.892;3.992;2023-02-07T04:40:58;2.20;99.90
21592;DHT22;10958;50.892;3.992;2023-02-07T04:43:24;2.20;99.90
21592;DHT22;10958;50.892;3.992;2023-02-07T04:45:50;2.00;99.90
21592;DHT22;10958;50.892;3.992;2023-02-07T04:48:16;2.00;99.90
21592;DHT22;10958;50.892;3.992;2023-02-07T04:50:42;1.90;99.90
21592;DHT22;10958;50.892;3.992;2023-02-07T04:53:08;1.80;99.90
21592;DHT22;10958;50.892;3.992;2023-02-07T04:55:34;1.50;99.90
21592;DHT22;10958;50.892;3.992;2023-02-07T04:58:02;1.60;99.90
21592;DHT22;10958;50.892;3.992;2023-02-07T05:00:28;1.80;99.90
21592;DHT22;10958;50.892;3.992;2023-02-07T05:02:54;1.50;99.90
21592;DHT22;10958;50.892;3.992;2023-02-07T05:05:23;1.60;99.90
21592;DHT22;10958;50.892;3.992;2023-02-07T05:07:48;1.70;99.90
21592;DHT22;10958;50.892;3.992;2023-02-07T05:10:16;1.70;99.90
21592;DHT22;10958;50.892;3.992;2023-02-07T05:12:43;1.40;99.90
21592;DHT22;10958;50.892;3.992;2023-02-07T05:15:09;1.50;99.90
21592;DHT22;10958;50.892;3.992;2023-02-07T05:17:35;1.50;99.90
21592;DHT22;10958;50.892;3.992;2023-02-07T05:20:04;1.50;99.90
21592;DHT22;10958;50.892;3.992;2023-02-07T05:22:30;1.70;99.90
21592;DHT22;10958;50.892;3.992;2023-02-07T05:24:56;1.80;99.90
21592;DHT22;10958;50.892;3.992;2023-02-07T05:27:22;1.90;99.90
21592;DHT22;10958;50.892;3.992;2023-02-07T05:29:47;1.80;99.90
21592;DHT22;10958;50.892;3.992;2023-02-07T05:32:14;1.90;99.90
21592;DHT22;10958;50.892;3.992;2023-02-07T05:34:58;1.90;99.90
21592;DHT22;10958;50.892;3.992;2023-02-07T05:37:24;1.60;99.90
21592;DHT22;10958;50.892;3.992;2023-02-07T05:39:51;1.60;99.90
21592;DHT22;10958;50.892;3.992;2023-02-07T05:42:17;1.30;99.90
21592;DHT22;10958;50.892;3.992;2023-02-07T05:44:47;1.10;99.90
21592;DHT22;10958;50.892;3.992;2023-02-07T05:47:13;1.20;99.90
21592;DHT22;10958;50.892;3.992;2023-02-07T05:49:38;1.10;99.90
21592;DHT22;10958;50.892;3.992;2023-02-07T05:52:04;1.00;99.90
21592;DHT22;10958;50.892;3.992;2023-02-07T05:54:30;1.00;99.90
21592;DHT22;10958;50.892;3.992;2023-02-07T05:56:56;0.90;99.90
21592;DHT22;10958;50.892;3.992;2023-02-07T05:59:22;0.70;99.90
21592;DHT22;10958;50.892;3.992;2023-02-07T06:01:48;0.60;99.90
21592;DHT22;10958;50.892;3.992;2023-02-07T06:04:13;0.80;99.90
21592;DHT22;10958;50.892;3.992;2023-02-07T06:06:39;0.60;99.90
21592;DHT22;10958;50.892;3.992;2023-02-07T06:09:05;1.00;99.90
21592;DHT22;10958;50.892;3.992;2023-02-07T06:11:30;1.10;99.90
21592;DHT22;10958;50.892;3.992;2023-02-07T06:13:56;0.90;99.90
21592;DHT22;10958;50.892;3.992;2023-02-07T06:16:21;0.90;99.90
21592;DHT22;10958;50.892;3.992;2023-02-07T06:18:48;0.80;99.90
21592;DHT22;10958;50.892;3.992;2023-02-07T06:21:13;1.00;99.90
21592;DHT22;10958;50.892;3.992;2023-02-07T06:23:39;1.10;99.90
21592;DHT22;10958;50.892;3.992;2023-02-07T06:26:05;1.10;99.90
21592;DHT22;10958;50.892;3.992;2023-02-07T06:28:33;1.40;99.90
21592;DHT22;10958;50.892;3.992;2023-02-07T06:30:59;1.70;99.90
21592;DHT22;10958;50.892;3.992;2023-02-07T06:33:25;1.70;99.90
21592;DHT22;10958;50.892;3.992;2023-02-07T06:35:51;1.70;99.90
21592;DHT22;10958;50.892;3.992;2023-02-07T06:38:20;1.80;99.90
21592;DHT22;10958;50.892;3.992;2023-02-07T06:40:46;1.40;99.90
21592;DHT22;10958;50.892;3.992;2023-02-07T06:43:12;1.10;99.90
21592;DHT22;10958;50.892;3.992;2023-02-07T06:45:38;1.00;99.90
21592;DHT22;10958;50.892;3.992;2023-02-07T06:48:05;1.30;99.90
21592;DHT22;10958;50.892;3.992;2023-02-07T06:50:31;1.20;99.90
21592;DHT22;10958;50.892;3.992;2023-02-07T06:52:59;1.20;99.90
21592;DHT22;10958;50.892;3.992;2023-02-07T06:55:37;0.70;99.90
21592;DHT22;10958;50.892;3.992;2023-02-07T06:58:04;0.90;99.90
21592;DHT22;10958;50.892;3.992;2023-02-07T07:00:29;1.00;99.90
21592;DHT22;10958;50.892;3.992;2023-02-07T07:02:58;1.10;99.90
21592;DHT22;10958;50.892;3.992;2023-02-07T07:05:33;1.10;99.90
21592;DHT22;10958;50.892;3.992;2023-02-07T07:08:23;1.20;99.90
21592;DHT22;10958;50.892;3.992;2023-02-07T07:10:51;1.20;99.90
21592;DHT22;10958;50.892;3.992;2023-02-07T07:13:19;1.20;99.90
21592;DHT22;10958;50.892;3.992;2023-02-07T07:16:20;1.10;99.90
21592;DHT22;10958;50.892;3.992;2023-02-07T07:22:04;0.90;99.90
21592;DHT22;10958;50.892;3.992;2023-02-07T07:24:43;1.00;99.90
21592;DHT22;10958;50.892;3.992;2023-02-07T07:27:21;1.10;99.90
21592;DHT22;10958;50.892;3.992;2023-02-07T07:29:57;1.20;99.90
21592;DHT22;10958;50.892;3.992;2023-02-07T07:32:23;1.20;99.90
21592;DHT22;10958;50.892;3.992;2023-02-07T07:34:58;1.20;99.90
21592;DHT22;10958;50.892;3.992;2023-02-07T07:37:27;1.10;99.90
21592;DHT22;10958;50.892;3.992;2023-02-07T07:39:56;1.30;99.90
21592;DHT22;10958;50.892;3.992;2023-02-07T07:42:24;1.20;99.90
21592;DHT22;10958;50.892;3.992;2023-02-07T07:44:51;1.00;99.90
21592;DHT22;10958;50.892;3.992;2023-02-07T07:47:18;1.00;99.90
21592;DHT22;10958;50.892;3.992;2023-02-07T07:49:44;1.00;99.90
21592;DHT22;10958;50.892;3.992;2023-02-07T07:52:10;0.80;99.90
21592;DHT22;10958;50.892;3.992;2023-02-07T07:54:36;0.90;99.90
21592;DHT22;10958;50.892;3.992;2023-02-07T07:57:04;0.80;99.90
21592;DHT22;10958;50.892;3.992;2023-02-07T07:59:33;0.70;99.90
21592;DHT22;10958;50.892;3.992;2023-02-07T08:01:59;0.80;99.90
21592;DHT22;10958;50.892;3.992;2023-02-07T08:04:25;0.90;99.90
21592;DHT22;10958;50.892;3.992;2023-02-07T08:06:54;0.90;99.90
21592;DHT22;10958;50.892;3.992;2023-02-07T08:09:20;1.00;99.90
21592;DHT22;10958;50.892;3.992;2023-02-07T08:11:45;1.10;99.90
21592;DHT22;10958;50.892;3.992;2023-02-07T08:14:11;1.00;99.90
21592;DHT22;10958;50.892;3.992;2023-02-07T08:16:37;0.90;99.90
21592;DHT22;10958;50.892;3.992;2023-02-07T08:19:03;0.80;99.90
21592;DHT22;10958;50.892;3.992;2023-02-07T08:21:31;0.90;99.90
21592;DHT22;10958;50.892;3.992;2023-02-07T08:23:57;1.00;99.90
21592;DHT22;10958;50.892;3.992;2023-02-07T08:26:23;1.10;99.90
21592;DHT22;10958;50.892;3.992;2023-02-07T08:28:49;1.30;99.90
21592;DHT22;10958;50.892;3.992;2023-02-07T08:31:17;1.30;99.90
21592;DHT22;10958;50.892;3.992;2023-02-07T08:33:43;1.30;99.90
21592;DHT22;10958;50.892;3.992;2023-02-07T08:36:10;1.40;99.90
21592;DHT22;10958;50.892;3.992;2023-02-07T08:38:37;1.10;99.90
21592;DHT22;10958;50.892;3.992;2023-02-07T08:41:03;1.20;99.90
21592;DHT22;10958;50.892;3.992;2023-02-07T08:43:29;1.00;99.90
21592;DHT22;10958;50.892;3.992;2023-02-07T08:45:55;0.90;99.90
21592;DHT22;10958;50.892;3.992;2023-02-07T08:48:25;0.40;99.90
21592;DHT22;10958;50.892;3.992;2023-02-07T08:50:51;0.40;99.90
21592;DHT22;10958;50.892;3.992;2023-02-07T08:53:17;0.70;99.90
21592;DHT22;10958;50.892;3.992;2023-02-07T08:55:43;1.00;99.90
21592;DHT22;10958;50.892;3.992;2023-02-07T08:58:09;1.00;99.90
21592;DHT22;10958;50.892;3.992;2023-02-07T09:00:37;1.20;99.90
21592;DHT22;10958;50.892;3.992;2023-02-07T09:03:03;1.40;99.90
21592;DHT22;10958;50.892;3.992;2023-02-07T09:05:30;1.70;99.90
21592;DHT22;10958;50.892;3.992;2023-02-07T09:08:02;2.10;99.90
21592;DHT22;10958;50.892;3.992;2023-02-07T09:10:28;2.30;99.90
21592;DHT22;10958;50.892;3.992;2023-02-07T09:12:53;2.30;99.90
21592;DHT22;10958;50.892;3.992;2023-02-07T09:15:20;1.90;99.90
21592;DHT22;10958;50.892;3.992;2023-02-07T09:17:46;2.00;99.90
21592;DHT22;10958;50.892;3.992;2023-02-07T09:20:12;1.80;99.90
21592;DHT22;10958;50.892;3.992;2023-02-07T09:22:39;1.60;99.90
21592;DHT22;10958;50.892;3.992;2023-02-07T09:25:23;1.30;99.90
21592;DHT22;10958;50.892;3.992;2023-02-07T09:27:51;1.20;99.90
21592;DHT22;10958;50.892;3.992;2023-02-07T09:30:21;1.40;99.90
21592;DHT22;10958;50.892;3.992;2023-02-07T09:32:47;1.90;99.90
21592;DHT22;10958;50.892;3.992;2023-02-07T09:35:13;2.20;99.90
21592;DHT22;10958;50.892;3.992;2023-02-07T09:37:39;2.30;99.90
21592;DHT22;10958;50.892;3.992;2023-02-07T09:40:05;2.40;99.90
21592;DHT22;10958;50.892;3.992;2023-02-07T09:45:12;2.30;99.90
21592;DHT22;10958;50.892;3.992;2023-02-07T09:47:43;2.10;99.90
21592;DHT22;10958;50.892;3.992;2023-02-07T09:52:54;1.70;99.90
21592;DHT22;10958;50.892;3.992;2023-02-07T09:55:54;2.00;99.90
21592;DHT22;10958;50.892;3.992;2023-02-07T09:59:01;2.40;99.90
21592;DHT22;10958;50.892;3.992;2023-02-07T10:01:41;2.70;99.90
21592;DHT22;10958;50.892;3.992;2023-02-07T10:06:49;3.10;99.90
21592;DHT22;10958;50.892;3.992;2023-02-07T10:09:28;2.90;99.90
21592;DHT22;10958;50.892;3.992;2023-02-07T10:22:38;3.70;99.90
21592;DHT22;10958;50.892;3.992;2023-02-07T10:30:48;4.50;99.90
21592;DHT22;10958;50.892;3.992;2023-02-07T10:33:19;4.70;99.90
21592;DHT22;10958;50.892;3.992;2023-02-07T10:35:47;4.40;99.90
21592;DHT22;10958;50.892;3.992;2023-02-07T10:41:28;4.30;99.90
21592;DHT22;10958;50.892;3.992;2023-02-07T10:43:55;4.20;99.90
21592;DHT22;10958;50.892;3.992;2023-02-07T10:46:22;4.20;99.90
21592;DHT22;10958;50.892;3.992;2023-02-07T10:48:48;3.90;99.90
21592;DHT22;10958;50.892;3.992;2023-02-07T10:51:24;3.70;99.90
21592;DHT22;10958;50.892;3.992;2023-02-07T10:54:09;3.70;99.90
21592;DHT22;10958;50.892;3.992;2023-02-07T11:03:38;4.40;99.90
21592;DHT22;10958;50.892;3.992;2023-02-07T11:06:05;4.30;99.90
21592;DHT22;10958;50.892;3.992;2023-02-07T11:08:35;4.50;99.90
21592;DHT22;10958;50.892;3.992;2023-02-07T11:11:23;4.70;99.90
21592;DHT22;10958;50.892;3.992;2023-02-07T11:13:50;4.70;99.90
21592;DHT22;10958;50.892;3.992;2023-02-07T11:16:22;4.70;99.90
21592;DHT22;10958;50.892;3.992;2023-02-07T11:19:04;4.60;99.90
21592;DHT22;10958;50.892;3.992;2023-02-07T11:21:34;4.50;99.90
21592;DHT22;10958;50.892;3.992;2023-02-07T11:24:06;4.50;99.90
21592;DHT22;10958;50.892;3.992;2023-02-07T11:26:47;4.40;99.90
21592;DHT22;10958;50.892;3.992;2023-02-07T11:29:15;4.50;99.90
21592;DHT22;10958;50.892;3.992;2023-02-07T11:31:45;4.60;99.90
21592;DHT22;10958;50.892;3.992;2023-02-07T11:37:32;4.80;99.90
21592;DHT22;10958;50.892;3.992;2023-02-07T11:42:43;4.60;99.90
21592;DHT22;10958;50.892;3.992;2023-02-07T11:45:19;4.60;99.90
21592;DHT22;10958;50.892;3.992;2023-02-07T11:47:48;4.60;99.90
21592;DHT22;10958;50.892;3.992;2023-02-07T11:50:23;4.60;99.90
21592;DHT22;10958;50.892;3.992;2023-02-07T11:52:55;4.70;99.90
21592;DHT22;10958;50.892;3.992;2023-02-07T11:55:26;4.80;99.90
21592;DHT22;10958;50.892;3.992;2023-02-07T11:57:54;4.90;99.90
21592;DHT22;10958;50.892;3.992;2023-02-07T12:00:26;4.90;99.90
21592;DHT22;10958;50.892;3.992;2023-02-07T12:05:30;5.20;99.90
21592;DHT22;10958;50.892;3.992;2023-02-07T12:08:20;5.10;99.90
21592;DHT22;10958;50.892;3.992;2023-02-07T12:11:11;5.10;99.90
21592;DHT22;10958;50.892;3.992;2023-02-07T12:13:45;5.00;99.90
21592;DHT22;10958;50.892;3.992;2023-02-07T12:16:18;5.00;99.90
21592;DHT22;10958;50.892;3.992;2023-02-07T12:18:56;4.90;99.90
21592;DHT22;10958;50.892;3.992;2023-02-07T12:27:00;5.20;99.90
21592;DHT22;10958;50.892;3.992;2023-02-07T12:29:48;5.30;99.90
21592;DHT22;10958;50.892;3.992;2023-02-07T12:38:27;5.20;99.90
21592;DHT22;10958;50.892;3.992;2023-02-07T12:43:57;5.20;99.90
21592;DHT22;10958;50.892;3.992;2023-02-07T12:46:42;5.10;99.90
21592;DHT22;10958;50.892;3.992;2023-02-07T12:55:14;5.30;99.90
21592;DHT22;10958;50.892;3.992;2023-02-07T12:57:50;5.30;99.90
21592;DHT22;10958;50.892;3.992;2023-02-07T13:12:05;5.50;99.90
21592;DHT22;10958;50.892;3.992;2023-02-07T13:17:50;5.60;99.90
21592;DHT22;10958;50.892;3.992;2023-02-07T13:23:08;5.50;99.90
21592;DHT22;10958;50.892;3.992;2023-02-07T13:25:39;5.50;99.90
21592;DHT22;10958;50.892;3.992;2023-02-07T13:28:27;5.60;99.90
21592;DHT22;10958;50.892;3.992;2023-02-07T13:30:54;5.70;99.90
21592;DHT22;10958;50.892;3.992;2023-02-07T13:33:37;5.70;99.90
21592;DHT22;10958;50.892;3.992;2023-02-07T13:42:10;5.80;99.90
21592;DHT22;10958;50.892;3.992;2023-02-07T13:53:34;5.90;99.90
21592;DHT22;10958;50.892;3.992;2023-02-07T13:56:11;5.90;99.90
21592;DHT22;10958;50.892;3.992;2023-02-07T13:59:00;5.90;99.90
21592;DHT22;10958;50.892;3.992;2023-02-07T14:01:53;6.00;99.90
21592;DHT22;10958;50.892;3.992;2023-02-07T14:04:20;5.90;99.90
21592;DHT22;10958;50.892;3.992;2023-02-07T14:12:35;5.80;99.90
21592;DHT22;10958;50.892;3.992;2023-02-07T14:23:18;5.60;99.90
21592;DHT22;10958;50.892;3.992;2023-02-07T14:25:45;5.60;99.90
21592;DHT22;10958;50.892;3.992;2023-02-07T14:28:30;5.90;99.90
21592;DHT22;10958;50.892;3.992;2023-02-07T14:30:59;6.00;99.90
21592;DHT22;10958;50.892;3.992;2023-02-07T14:33:31;6.10;99.90
21592;DHT22;10958;50.892;3.992;2023-02-07T14:38:41;5.90;99.90
21592;DHT22;10958;50.892;3.992;2023-02-07T14:41:14;5.90;99.90
21592;DHT22;10958;50.892;3.992;2023-02-07T14:46:28;6.00;99.90
21592;DHT22;10958;50.892;3.992;2023-02-07T14:54:45;6.00;99.90
21592;DHT22;10958;50.892;3.992;2023-02-07T14:59:42;6.20;99.90
21592;DHT22;10958;50.892;3.992;2023-02-07T15:02:27;6.20;99.90
21592;DHT22;10958;50.892;3.992;2023-02-07T15:04:53;6.10;99.90
21592;DHT22;10958;50.892;3.992;2023-02-07T15:07:19;6.10;99.90
21592;DHT22;10958;50.892;3.992;2023-02-07T15:09:45;6.20;99.90
21592;DHT22;10958;50.892;3.992;2023-02-07T15:12:23;6.30;99.90
21592;DHT22;10958;50.892;3.992;2023-02-07T15:14:54;6.20;99.90
21592;DHT22;10958;50.892;3.992;2023-02-07T15:17:25;6.30;99.90
21592;DHT22;10958;50.892;3.992;2023-02-07T15:20:00;6.30;99.90
21592;DHT22;10958;50.892;3.992;2023-02-07T15:22:27;6.30;99.90
21592;DHT22;10958;50.892;3.992;2023-02-07T15:24:57;6.30;99.90
21592;DHT22;10958;50.892;3.992;2023-02-07T15:27:28;6.40;99.90
21592;DHT22;10958;50.892;3.992;2023-02-07T15:29:55;6.40;99.90
21592;DHT22;10958;50.892;3.992;2023-02-07T15:32:23;6.50;99.90
21592;DHT22;10958;50.892;3.992;2023-02-07T15:34:49;6.30;99.90
21592;DHT22;10958;50.892;3.992;2023-02-07T15:37:19;6.10;99.90
21592;DHT22;10958;50.892;3.992;2023-02-07T15:39:47;6.20;99.90
21592;DHT22;10958;50.892;3.992;2023-02-07T15:42:18;6.20;99.90
21592;DHT22;10958;50.892;3.992;2023-02-07T15:44:55;6.10;99.90
21592;DHT22;10958;50.892;3.992;2023-02-07T15:50:05;6.20;99.90
21592;DHT22;10958;50.892;3.992;2023-02-07T15:52:35;6.30;99.90
21592;DHT22;10958;50.892;3.992;2023-02-07T15:55:23;6.20;99.90
21592;DHT22;10958;50.892;3.992;2023-02-07T15:57:52;6.10;99.90
21592;DHT22;10958;50.892;3.992;2023-02-07T16:00:26;6.10;99.90
21592;DHT22;10958;50.892;3.992;2023-02-07T16:03:07;6.20;99.90
21592;DHT22;10958;50.892;3.992;2023-02-07T16:05:37;6.20;99.90
21592;DHT22;10958;50.892;3.992;2023-02-07T16:08:05;6.10;99.90
21592;DHT22;10958;50.892;3.992;2023-02-07T16:10:37;6.00;99.90
21592;DHT22;10958;50.892;3.992;2023-02-07T16:15:38;6.00;99.90
21592;DHT22;10958;50.892;3.992;2023-02-07T16:18:05;6.00;99.90
21592;DHT22;10958;50.892;3.992;2023-02-07T16:20:34;5.90;99.90
21592;DHT22;10958;50.892;3.992;2023-02-07T16:23:02;5.90;99.90
21592;DHT22;10958;50.892;3.992;2023-02-07T16:25:33;5.90;99.90
21592;DHT22;10958;50.892;3.992;2023-02-07T16:28:07;5.90;99.90
21592;DHT22;10958;50.892;3.992;2023-02-07T16:30:36;5.90;99.90
21592;DHT22;10958;50.892;3.992;2023-02-07T16:33:06;5.60;99.90
21592;DHT22;10958;50.892;3.992;2023-02-07T16:35:32;5.60;99.90
21592;DHT22;10958;50.892;3.992;2023-02-07T16:37:58;5.60;99.90
21592;DHT22;10958;50.892;3.992;2023-02-07T16:40:29;5.70;99.90
21592;DHT22;10958;50.892;3.992;2023-02-07T16:42:56;5.50;99.90
21592;DHT22;10958;50.892;3.992;2023-02-07T16:45:26;5.30;99.90
21592;DHT22;10958;50.892;3.992;2023-02-07T16:47:54;5.30;99.90
21592;DHT22;10958;50.892;3.992;2023-02-07T16:50:22;5.10;99.90
21592;DHT22;10958;50.892;3.992;2023-02-07T16:52:50;5.10;99.90
21592;DHT22;10958;50.892;3.992;2023-02-07T16:55:18;5.10;99.90
21592;DHT22;10958;50.892;3.992;2023-02-07T16:57:44;5.10;99.90
21592;DHT22;10958;50.892;3.992;2023-02-07T17:00:21;5.00;99.90
21592;DHT22;10958;50.892;3.992;2023-02-07T17:02:51;4.90;99.90
21592;DHT22;10958;50.892;3.992;2023-02-07T17:05:21;4.80;99.90
21592;DHT22;10958;50.892;3.992;2023-02-07T17:07:47;4.70;99.90
21592;DHT22;10958;50.892;3.992;2023-02-07T17:10:24;4.50;99.90
21592;DHT22;10958;50.892;3.992;2023-02-07T17:12:50;4.30;99.90
21592;DHT22;10958;50.892;3.992;2023-02-07T17:15:16;4.30;99.90
21592;DHT22;10958;50.892;3.992;2023-02-07T17:17:44;4.30;99.90
21592;DHT22;10958;50.892;3.992;2023-02-07T17:20:31;4.40;99.90
21592;DHT22;10958;50.892;3.992;2023-02-07T17:22:58;4.30;99.90
21592;DHT22;10958;50.892;3.992;2023-02-07T17:25:28;4.20;99.90
21592;DHT22;10958;50.892;3.992;2023-02-07T17:27:54;4.20;99.90
21592;DHT22;10958;50.892;3.992;2023-02-07T17:30:41;4.10;99.90
21592;DHT22;10958;50.892;3.992;2023-02-07T17:33:09;4.30;99.90
21592;DHT22;10958;50.892;3.992;2023-02-07T17:35:36;4.70;99.90
21592;DHT22;10958;50.892;3.992;2023-02-07T17:38:03;4.80;99.90
21592;DHT22;10958;50.892;3.992;2023-02-07T17:40:35;4.70;99.90
21592;DHT22;10958;50.892;3.992;2023-02-07T17:43:02;4.50;99.90
21592;DHT22;10958;50.892;3.992;2023-02-07T17:45:29;4.50;99.90
21592;DHT22;10958;50.892;3.992;2023-02-07T17:47:55;4.30;99.90
21592;DHT22;10958;50.892;3.992;2023-02-07T17:50:35;4.30;99.90
21592;DHT22;10958;50.892;3.992;2023-02-07T17:53:03;4.30;99.90
21592;DHT22;10958;50.892;3.992;2023-02-07T17:55:31;4.50;99.90
21592;DHT22;10958;50.892;3.992;2023-02-07T17:57:58;4.50;99.90
21592;DHT22;10958;50.892;3.992;2023-02-07T18:00:33;4.40;99.90
21592;DHT22;10958;50.892;3.992;2023-02-07T18:03:01;4.30;99.90
21592;DHT22;10958;50.892;3.992;2023-02-07T18:05:28;4.40;99.90
21592;DHT22;10958;50.892;3.992;2023-02-07T18:07:53;4.40;99.90
21592;DHT22;10958;50.892;3.992;2023-02-07T18:10:25;4.40;99.90
21592;DHT22;10958;50.892;3.992;2023-02-07T18:12:51;4.20;99.90
21592;DHT22;10958;50.892;3.992;2023-02-07T18:15:20;4.20;99.90
21592;DHT22;10958;50.892;3.992;2023-02-07T18:17:47;4.20;99.90
21592;DHT22;10958;50.892;3.992;2023-02-07T18:20:16;4.30;99.90
21592;DHT22;10958;50.892;3.992;2023-02-07T18:22:50;4.10;99.90
21592;DHT22;10958;50.892;3.992;2023-02-07T18:25:17;4.20;99.90
21592;DHT22;10958;50.892;3.992;2023-02-07T18:27:43;4.30;99.90
21592;DHT22;10958;50.892;3.992;2023-02-07T18:30:11;4.20;99.90
21592;DHT22;10958;50.892;3.992;2023-02-07T18:32:38;4.30;99.90
21592;DHT22;10958;50.892;3.992;2023-02-07T18:35:04;4.30;99.90
21592;DHT22;10958;50.892;3.992;2023-02-07T18:37:32;4.40;99.90
21592;DHT22;10958;50.892;3.992;2023-02-07T18:39:57;4.50;99.90
21592;DHT22;10958;50.892;3.992;2023-02-07T18:42:24;4.40;99.90
21592;DHT22;10958;50.892;3.992;2023-02-07T18:44:51;4.40;99.90
21592;DHT22;10958;50.892;3.992;2023-02-07T18:47:18;4.40;99.90
21592;DHT22;10958;50.892;3.992;2023-02-07T18:49:45;4.00;99.90
21592;DHT22;10958;50.892;3.992;2023-02-07T18:52:12;3.70;99.90
21592;DHT22;10958;50.892;3.992;2023-02-07T18:54:38;3.70;99.90
21592;DHT22;10958;50.892;3.992;2023-02-07T18:57:07;3.60;99.90
21592;DHT22;10958;50.892;3.992;2023-02-07T18:59:33;3.60;99.90
21592;DHT22;10958;50.892;3.992;2023-02-07T19:02:00;3.80;99.90
21592;DHT22;10958;50.892;3.992;2023-02-07T19:04:26;3.80;99.90
21592;DHT22;10958;50.892;3.992;2023-02-07T19:06:52;3.60;99.90